Aviation Digital Data Service (ADDS)

Output produced by METARs form (1131 UTC 17 July 2018)
found at http://www.aviationweather.gov/adds/metars/
 
KFKL 171127Z AUTO 28005KT 3SM BR BKN004 OVC011 22/21 A2992 RMK AO2 LTG DSNT E CIG 003V007
KFKL 171056Z AUTO 28004KT 2 1/2SM BR OVC002 22/21 A2992 RMK AO2 RAE11 SLP120 P0000 T02170211
KFKL 171044Z AUTO 27005KT 3SM BR OVC002 22/21 A2992 RMK AO2 RAE11 P0000
KFKL 171012Z AUTO 26006KT 2 1/2SM BR OVC002 22/21 A2991 RMK AO2 VIS 2V4 RAE11 P0000
KFKL 170956Z AUTO 26003KT 4SM -RA BR OVC002 22/21 A2991 RMK AO2 RAB44 SLP116 P0000 T02170211
KFKL 170916Z AUTO 23005KT 3SM BR OVC002 21/21 A2990 RMK AO2
KFKL 170856Z AUTO 23005KT 4SM BR OVC004 22/21 A2990 RMK AO2 SLP113 60001 T02170211 56005
KFKL 170756Z AUTO 24007KT 6SM BR OVC004 21/21 A2990 RMK AO2 SLP113 P0001 T02110211
KFKL 170656Z AUTO 22006KT 8SM OVC004 21/21 A2991 RMK AO2 SLP116 T02110206
KFKL 170633Z AUTO 22006KT 9SM BKN006 OVC047 21/21 A2991 RMK AO2
KFKL 170606Z AUTO 21005KT 9SM FEW004 BKN050 21/21 A2992 RMK AO2
KFKL 170556Z AUTO 21005KT 9SM FEW050 21/21 A2992 RMK AO2 RAE0459 SLP120 P0000 60003 T02110206 10217 20206 58005
KFKL 170531Z AUTO 21005KT 10SM SCT005 21/21 A2992 RMK AO2 RAE0459 P0000
KFKL 170512Z AUTO 22003KT 5SM BR BKN005 BKN015 21/21 A2993 RMK AO2 RAE0459 CIG 003V007 P0000
KFKL 170456Z AUTO 20004KT 7SM -RA SCT005 BKN015 21/21 A2993 RMK AO2 RAB02 SLP124 P0002 T02110206 403110189
KFKL 170448Z AUTO 21004KT 7SM -RA BKN005 BKN015 OVC031 21/21 A2994 RMK AO2 RAB02 CIG 004V010 P0002
KFKL 170439Z AUTO 21005KT 7SM -RA BKN007 BKN043 OVC050 21/21 A2994 RMK AO2 RAB02 CIG 004V016 P0002
KFKL 170430Z AUTO 22005KT 7SM -RA SCT007 BKN031 OVC047 21/21 A2994 RMK AO2 LTG DSNT SE AND S RAB02 P0001
KFKL 170356Z AUTO 22004KT 7SM SCT100 21/21 A2994 RMK AO2 LTG DSNT E-SW RAB05E32 SLP125 P0001 T02110206
KFKL 170256Z AUTO 23005KT 8SM FEW030 21/20 A2994 RMK AO2 LTG DSNT S AND W SLP126 60000 T02060200 51002
KFKL 170237Z AUTO 00000KT 4SM BR FEW095 21/20 A2994 RMK AO2 LTG DSNT W
KFKL 170232Z AUTO 00000KT 1 1/4SM BR FEW095 21/20 A2994 RMK AO2 LTG DSNT W AND NW
KFKL 170218Z AUTO 00000KT 3/4SM BR CLR 21/20 A2994 RMK AO2 VIS 1/2V2 LTG DSNT NW
KFKL 170211Z AUTO 00000KT 1 3/4SM BR CLR 21/20 A2993 RMK AO2 VIS 1/2V5 LTG DSNT NW
KFKL 170156Z AUTO 00000KT 7SM CLR 21/20 A2993 RMK AO2 LTG DSNT W SLP125 T02060200
KFKL 170056Z AUTO 07003KT 9SM BKN065 OVC095 21/21 A2995 RMK AO2 TSE2359RAE11 SLP130 P0000 T02110206
KFKL 170005Z AUTO 00000KT 10SM -RA FEW035 SCT050 BKN065 21/21 A2993 RMK AO2 LTG DSNT ALQDS TSE2359 P0000
KFKL 162356Z AUTO 13007KT 6SM VCTS -RA BR FEW033 BKN070 OVC080 22/21 A2993 RMK AO2 PK WND 17039/2319 LTG DSNT ALQDS TSE18B19RAB06 SLP127 P0060 6//// T02170206 10311 20211 55001
KFKL 162340Z AUTO 24003KT 8SM TSRA FEW007 BKN034 OVC044 22/20 A2994 RMK AO2 PK WND 17039/2319 LTG DSNT ALQDS TSE18B19RAB06 P0059
KFKL 162332Z AUTO 21005KT 4SM +TSRA BR FEW007 BKN028 OVC047 22/19 A2995 RMK AO2 PK WND 17039/2319 LTG DSNT ALQDS TSE18B19RAB06 CIG 016V034 P0057
KFKL 162329Z AUTO 00000KT 2 1/2SM +TSRA FEW007 BKN035 OVC047 22/19 A2994 RMK AO2 PK WND 17039/2319 LTG DSNT ALQDS TSE18B19RAB06 P0055
KFKL 162325Z AUTO 22008G39KT 1SM +TSRA SCT005 BKN035 OVC047 23/18 A2994 RMK AO2 PK WND 17039/2319 LTG DSNT N AND SE AND NW TSE18B19RAB06 P0054
KFKL 162318Z AUTO 20017G31KT 160V220 1 1/4SM +RA BR FEW007 SCT023 BKN045 22/21 A3000 RMK AO2 PK WND 20031/2311 VIS 3/4V4 TSE18RAB06 PRESRR P0027
KFKL 162316Z AUTO 22020G31KT 1 3/4SM +TSRA BR FEW023 SCT035 BKN045 22/21 A2998 RMK AO2 PK WND 20031/2311 VIS 3/4V5 LTG DSNT N AND SE AND NW RAB06 PRESRR P0012
KFKL 162256Z AUTO 21005KT 10SM VCTS FEW048 28/22 A2992 RMK AO2 LTG DSNT SW-NW TSB54 SLP119 T02780217
KFKL 162156Z AUTO 23006KT 10SM CLR 29/21 A2992 RMK AO2 SLP119 T02940211
KFKL 162056Z AUTO 20009KT 10SM SCT044 31/21 A2993 RMK AO2 SLP124 6//// T03060206 56021
KFKL 161956Z AUTO 22009KT 10SM FEW043 31/20 A2994 RMK AO2 SLP127 T03060200
KFKL 161856Z AUTO 24009KT 10SM FEW036 31/22 A2997 RMK AO2 SLP137 T03060217
KFKL 161756Z AUTO 24006KT 10SM FEW034 29/21 A3000 RMK AO2 SLP146 T02940211 10300 20217 58012
KFKL 161656Z AUTO 23008KT 10SM FEW070 28/22 A3002 RMK AO2 SLP153 T02830217
KFKL 161556Z AUTO 22006KT 10SM SCT025 28/22 A3003 RMK AO2 SLP157 T02830217
KFKL 161544Z AUTO 18006KT 10SM SCT023 28/22 A3003 RMK AO2
KFKL 161536Z AUTO 21007KT 10SM BKN021 28/22 A3003 RMK AO2
KFKL 161456Z AUTO 22005KT 10SM CLR 27/21 A3003 RMK AO2 SLP158 T02670211 58004
KFKL 161356Z AUTO 23005KT 10SM CLR 25/21 A3004 RMK AO2 SLP161 T02500211
KFKL 161256Z AUTO 21007KT 10SM CLR 24/21 A3005 RMK AO2 SLP162 T02390211
KFKL 161156Z AUTO 19005KT 9SM CLR 22/20 A3005 RMK AO2 SLP163 7//// T02170200 10217 20189 52004